Terminal Aerodrome Forecast
Issued by NWS

Current Version | Previous Version | Graphics & Text | Print | Product List | Glossary On
Versions: 1 2 3 4 5 6 7 8 9 10 11 12 13 14 15
883
FTUS41 KILN 191743
TAFLUK
TAF
KLUK 191743Z 1918/2018 26010G18KT P6SM VCSH SCT060
     FM192200 27010KT P6SM SCT080
     FM200200 26005KT P6SM FEW080=

USA.gov is the U.S. government's official web portal to all federal, state and local government web resources and services.